Time;durP1;ratioP1;P1;durP2;ratioP2;P2;SDS_P1;SDS_P2;PMS_P1;PMS_P2;Temp;Humidity;BMP_temperature;BMP_pressure;BME280_temperature;BME280_humidity;BME280_pressure;Samples;Min_cycle;Max_cycle;Signal;HPM_P1;HPM_P2
2022/08/20 00:01:41;;;;;;;;;;;;;;;24.68;69.67;99305.69;4391332;32;33668;-85
2022/08/20 00:04:10;;;;;;;;;;;;;;;24.86;68.85;99305.53;4377862;32;33451;-85
2022/08/20 00:06:39;;;;;;;;;;;;;;;24.54;69.96;99317.16;4365024;32;34113;-85
2022/08/20 00:09:08;;;;;;;;;;;;;;;24.68;69.35;99315.66;4390021;32;34254;-85
2022/08/20 00:11:36;;;;;;;;;;;;;;;24.67;69.22;99325.63;4363873;32;33301;-85
2022/08/20 00:14:05;;;;;;;;;;;;;;;24.90;68.40;99319.53;4377526;32;33436;-85
2022/08/20 00:16:35;;;;;;;;;;;;;;;24.74;68.91;99321.25;4391617;32;34864;-85
2022/08/20 00:19:08;;;;;;;;;;;;;;;24.47;69.48;99324.28;4391990;32;34146;-84
2022/08/20 00:21:36;;;;;;;;;;;;;;;24.80;68.39;99335.06;4390810;32;34369;-84
2022/08/20 00:24:04;;;;;;;;;;;;;;;24.67;68.79;99330.19;4366686;32;33044;-84
2022/08/20 00:26:32;;;;;;;;;;;;;;;24.69;68.82;99333.56;4379698;32;34030;-84
2022/08/20 00:29:00;;;;;;;;;;;;;;;24.67;68.85;99332.88;4391647;32;33124;-84
2022/08/20 00:31:41;;;;;;;;;;;;;;;24.84;68.36;99334.56;4391665;32;33019;-83
2022/08/20 00:34:09;;;;;;;;;;;;;;;24.79;68.64;99331.53;4379697;32;33938;-83
2022/08/20 00:36:43;;;;;;;;;;;;;;;24.76;68.60;99339.97;4392893;32;34052;-84
2022/08/20 00:39:10;;;;;;;;;;;;;;;24.80;68.50;99337.78;4391627;32;34006;-84
2022/08/20 00:41:41;;;;;;;;;;;;;;;25.02;67.13;99337.09;4379046;32;33965;-84
2022/08/20 00:44:16;;;;;;;;;;;;;;;24.68;68.27;99334.56;4379184;32;34612;-83
2022/08/20 00:46:44;;;;;;;;;;;;;;;24.37;69.39;99337.91;4391033;32;32980;-84
2022/08/20 00:49:15;;;;;;;;;;;;;;;24.47;68.70;99330.50;4366972;32;33216;-84
2022/08/20 00:51:45;;;;;;;;;;;;;;;24.54;68.20;99319.88;4378664;32;34106;-84
2022/08/20 00:54:34;;;;;;;;;;;;;;;24.24;68.71;99327.56;4366970;32;32945;-84
2022/08/20 00:57:10;;;;;;;;;;;;;;;24.40;68.13;99312.44;4392887;32;34259;-85
2022/08/20 00:59:38;;;;;;;;;;;;;;;24.63;67.09;99313.47;4378655;32;34709;-84
2022/08/20 01:02:11;;;;;;;;;;;;;;;24.43;68.02;99314.81;4377402;32;34874;-84
2022/08/20 01:04:43;;;;;;;;;;;;;;;24.66;66.73;99305.03;4378520;32;32564;-84
2022/08/20 01:07:10;;;;;;;;;;;;;;;24.46;67.45;99301.84;4378053;32;34244;-84
2022/08/20 01:09:38;;;;;;;;;;;;;;;24.55;67.35;99300.00;4391459;32;34551;-83
2022/08/20 01:12:34;;;;;;;;;;;;;;;24.39;68.31;99313.47;4379875;32;32657;-83
2022/08/20 01:15:05;;;;;;;;;;;;;;;24.57;67.99;99308.75;4391866;32;33392;-83
2022/08/20 01:17:35;;;;;;;;;;;;;;;24.33;68.90;99314.09;4391921;32;34611;-83
2022/08/20 01:20:07;;;;;;;;;;;;;;;24.21;68.78;99319.84;4390879;32;34316;-83
2022/08/20 01:25:47;;;;;;;;;;;;;;;24.05;69.97;99309.00;4390964;32;33058;-83
2022/08/20 01:28:17;;;;;;;;;;;;;;;23.81;70.21;99298.16;4391345;32;34236;-84
2022/08/20 01:30:45;;;;;;;;;;;;;;;24.06;69.63;99297.19;4379237;32;34756;-83
2022/08/20 01:33:13;;;;;;;;;;;;;;;24.13;69.22;99287.44;4391114;32;34239;-83
2022/08/20 01:35:41;;;;;;;;;;;;;;;23.86;70.42;99287.72;4391453;32;33658;-83
2022/08/20 01:38:08;;;;;;;;;;;;;;;23.91;70.14;99279.97;4376734;32;33215;-83
2022/08/20 01:41:02;;;;;;;;;;;;;;;24.02;69.18;99271.56;4391114;32;34699;-83
2022/08/20 01:43:30;;;;;;;;;;;;;;;23.56;71.57;99281.88;4376851;32;33615;-83
2022/08/20 01:46:04;;;;;;;;;;;;;;;23.72;70.76;99286.50;4387602;32;32435;-81
2022/08/20 01:48:32;;;;;;;;;;;;;;;24.05;69.37;99270.41;4388013;32;33752;-82
2022/08/20 01:51:19;;;;;;;;;;;;;;;23.87;70.20;99284.00;4379325;32;33495;-82
2022/08/20 01:53:50;;;;;;;;;;;;;;;23.64;71.19;99290.03;4378901;32;33790;-83
2022/08/20 01:56:20;;;;;;;;;;;;;;;23.98;70.18;99286.41;4377213;32;32137;-83
2022/08/20 01:58:50;;;;;;;;;;;;;;;24.04;69.58;99285.72;4390599;32;34078;-82
2022/08/20 02:01:27;;;;;;;;;;;;;;;23.76;70.83;99287.84;4391676;32;34462;-82
2022/08/20 02:03:55;;;;;;;;;;;;;;;23.97;70.00;99271.22;4378699;32;32674;-82
2022/08/20 02:06:24;;;;;;;;;;;;;;;23.94;69.89;99264.31;4366762;32;32547;-83
2022/08/20 02:08:53;;;;;;;;;;;;;;;23.98;69.38;99254.03;4364981;32;33481;-83
2022/08/20 02:11:21;;;;;;;;;;;;;;;24.17;68.69;99252.91;4379223;32;35054;-83
2022/08/20 02:13:51;;;;;;;;;;;;;;;24.27;68.26;99251.72;4377753;32;32947;-82
2022/08/20 02:16:21;;;;;;;;;;;;;;;24.21;68.55;99248.81;4379698;32;33929;-82
2022/08/20 02:18:50;;;;;;;;;;;;;;;23.80;69.68;99262.25;4378696;32;34226;-83
2022/08/20 02:21:17;;;;;;;;;;;;;;;23.91;69.59;99269.19;4379111;32;34710;-84
2022/08/20 02:23:45;;;;;;;;;;;;;;;24.01;69.06;99269.87;4391059;32;34989;-84
2022/08/20 02:26:13;;;;;;;;;;;;;;;23.96;69.20;99256.06;4365904;32;32350;-84
2022/08/20 02:28:41;;;;;;;;;;;;;;;24.08;68.81;99260.13;4366189;32;32978;-84
2022/08/20 02:31:08;;;;;;;;;;;;;;;24.12;68.56;99261.47;4366276;32;32819;-82
2022/08/20 02:33:36;;;;;;;;;;;;;;;24.23;68.08;99269.25;4391126;32;33437;-82
2022/08/20 02:36:05;;;;;;;;;;;;;;;23.96;69.12;99272.22;4378412;32;32946;-83
2022/08/20 02:38:33;;;;;;;;;;;;;;;24.00;68.93;99284.37;4376365;32;32723;-83
2022/08/20 02:41:02;;;;;;;;;;;;;;;24.07;68.78;99288.12;4390849;32;34939;-83
2022/08/20 02:43:31;;;;;;;;;;;;;;;24.08;68.68;99287.09;4377975;32;34176;-84
2022/08/20 02:45:59;;;;;;;;;;;;;;;24.24;67.95;99281.72;4366551;32;32604;-83
2022/08/20 02:48:28;;;;;;;;;;;;;;;24.11;68.46;99275.94;4390400;32;34057;-84
2022/08/20 02:51:00;;;;;;;;;;;;;;;23.99;68.71;99280.00;4378064;32;33455;-83
2022/08/20 02:53:30;;;;;;;;;;;;;;;24.05;68.49;99292.81;4390182;32;33313;-84
2022/08/20 02:55:58;;;;;;;;;;;;;;;23.79;69.30;99292.09;4378308;32;33194;-84
2022/08/20 02:58:26;;;;;;;;;;;;;;;23.93;68.95;99289.59;4378493;32;34119;-83
2022/08/20 03:00:55;;;;;;;;;;;;;;;24.04;68.68;99295.69;4390907;32;33313;-83
2022/08/20 03:03:23;;;;;;;;;;;;;;;23.94;68.81;99307.47;4390943;32;34437;-84
2022/08/20 03:05:54;;;;;;;;;;;;;;;23.90;68.99;99310.66;4364747;32;32083;-83
2022/08/20 03:08:23;;;;;;;;;;;;;;;23.96;68.59;99323.47;4378444;32;33343;-83
2022/08/20 03:10:50;;;;;;;;;;;;;;;23.34;71.35;99371.34;4390163;32;33725;-83
2022/08/20 03:13:18;;;;;;;;;;;;;;;23.24;71.94;99391.13;4390604;32;34218;-84
2022/08/20 03:15:47;;;;;;;;;;;;;;;23.61;70.44;99386.47;4390144;32;33228;-83
2022/08/20 03:18:18;;;;;;;;;;;;;;;24.07;68.46;99374.41;4390889;32;34841;-84
2022/08/20 03:20:46;;;;;;;;;;;;;;;23.60;70.46;99368.63;4390775;32;34068;-83
2022/08/20 03:23:19;;;;;;;;;;;;;;;23.58;70.66;99376.84;4391006;32;32455;-83
2022/08/20 03:25:47;;;;;;;;;;;;;;;23.69;70.13;99382.03;4378276;32;33066;-82
2022/08/20 03:28:16;;;;;;;;;;;;;;;23.68;70.19;99391.09;4378139;32;34380;-82
2022/08/20 03:30:44;;;;;;;;;;;;;;;23.77;69.86;99397.38;4390698;32;34407;-82
2022/08/20 03:33:11;;;;;;;;;;;;;;;23.82;69.83;99394.19;4378065;32;33592;-83
2022/08/20 03:35:39;;;;;;;;;;;;;;;24.10;68.50;99387.56;4389732;32;33075;-83
2022/08/20 03:38:08;;;;;;;;;;;;;;;23.65;70.35;99388.72;4377952;32;34488;-82
2022/08/20 03:40:36;;;;;;;;;;;;;;;23.61;70.71;99398.09;4390177;32;32726;-82
2022/08/20 03:43:04;;;;;;;;;;;;;;;23.89;69.40;99384.47;4390563;32;32698;-82
2022/08/20 03:45:31;;;;;;;;;;;;;;;23.59;70.85;99389.31;4377292;32;33592;-82
2022/08/20 03:48:00;;;;;;;;;;;;;;;23.92;69.48;99390.34;4377054;32;34198;-84
2022/08/20 03:50:29;;;;;;;;;;;;;;;23.90;69.53;99386.97;4390814;32;33879;-83
2022/08/20 03:52:56;;;;;;;;;;;;;;;24.17;68.34;99375.13;4366903;32;33557;-85
2022/08/20 03:55:24;;;;;;;;;;;;;;;23.65;70.50;99372.56;4391613;32;32998;-83
2022/08/20 03:57:54;;;;;;;;;;;;;;;23.74;70.33;99366.19;4367868;32;33121;-84
2022/08/20 04:00:27;;;;;;;;;;;;;;;23.45;71.81;99377.31;4366853;32;33332;-84
2022/08/20 04:02:56;;;;;;;;;;;;;;;23.81;70.00;99374.47;4378276;32;34975;-84
2022/08/20 04:05:24;;;;;;;;;;;;;;;24.00;69.16;99387.69;4392174;32;32401;-83
2022/08/20 04:07:56;;;;;;;;;;;;;;;24.05;68.77;99395.28;4379582;32;33014;-84
2022/08/20 04:10:30;;;;;;;;;;;;;;;23.84;69.76;99386.81;4380577;32;33943;-85
2022/08/20 04:12:58;;;;;;;;;;;;;;;23.83;70.14;99382.38;4378816;32;34589;-83
2022/08/20 04:15:25;;;;;;;;;;;;;;;23.86;69.96;99360.50;4392323;32;33290;-83
2022/08/20 04:17:55;;;;;;;;;;;;;;;24.03;69.34;99340.69;4393399;32;33876;-84
2022/08/20 04:20:24;;;;;;;;;;;;;;;23.60;70.97;99337.13;4378724;32;35129;-83
2022/08/20 04:22:53;;;;;;;;;;;;;;;23.37;72.09;99326.06;4391887;32;33846;-83
2022/08/20 04:25:27;;;;;;;;;;;;;;;23.51;71.47;99336.25;4380612;32;32126;-82
2022/08/20 04:27:59;;;;;;;;;;;;;;;23.56;71.47;99338.47;4393367;32;33146;-82
2022/08/20 04:30:28;;;;;;;;;;;;;;;23.51;71.87;99348.88;4392579;32;33313;-82
2022/08/20 04:32:55;;;;;;;;;;;;;;;23.67;71.24;99343.59;4380247;32;34787;-82
2022/08/20 04:35:24;;;;;;;;;;;;;;;23.88;70.27;99339.59;4391964;32;33334;-83
2022/08/20 04:38:13;;;;;;;;;;;;;;;23.75;70.56;99335.53;4390930;32;33746;-83
2022/08/20 04:40:53;;;;;;;;;;;;;;;23.94;69.91;99337.13;4378659;32;34203;-84
2022/08/20 04:43:27;;;;;;;;;;;;;;;24.05;69.60;99352.16;4391121;32;34560;-83
2022/08/20 04:45:57;;;;;;;;;;;;;;;24.05;68.57;99349.44;4379669;32;33818;-84
2022/08/20 04:48:27;;;;;;;;;;;;;;;24.17;68.92;99341.91;4379430;32;32358;-84
2022/08/20 04:50:57;;;;;;;;;;;;;;;24.14;68.81;99332.28;4392515;32;34300;-84
2022/08/20 04:53:29;;;;;;;;;;;;;;;24.11;69.10;99340.69;4391173;32;34989;-83
2022/08/20 04:55:57;;;;;;;;;;;;;;;24.07;69.33;99355.53;4377420;32;32857;-82
2022/08/20 04:58:26;;;;;;;;;;;;;;;23.92;70.20;99362.53;4378822;32;33793;-84
2022/08/20 05:00:55;;;;;;;;;;;;;;;23.92;70.37;99357.16;4391181;32;34279;-83
2022/08/20 05:03:28;;;;;;;;;;;;;;;23.95;70.45;99365.75;4374766;32;34318;-83
2022/08/20 05:06:00;;;;;;;;;;;;;;;24.07;70.07;99366.31;4374100;32;33295;-83
2022/08/20 05:08:32;;;;;;;;;;;;;;;24.13;69.95;99365.66;4389525;32;32686;-83
2022/08/20 05:11:02;;;;;;;;;;;;;;;24.33;69.36;99359.97;4389855;32;33374;-84
2022/08/20 05:13:51;;;;;;;;;;;;;;;24.36;69.18;99365.03;4367334;32;34073;-83
2022/08/20 05:16:23;;;;;;;;;;;;;;;24.54;68.66;99357.66;4389525;32;33485;-83
2022/08/20 05:18:52;;;;;;;;;;;;;;;24.64;68.49;99358.38;4390017;32;33881;-83
2022/08/20 05:21:20;;;;;;;;;;;;;;;24.57;69.07;99362.72;4376847;32;33823;-82
2022/08/20 05:23:49;;;;;;;;;;;;;;;24.79;68.43;99353.13;4391105;32;32903;-82
2022/08/20 05:26:25;;;;;;;;;;;;;;;24.60;69.25;99362.41;4378342;32;33492;-82
2022/08/20 05:28:56;;;;;;;;;;;;;;;24.74;68.46;99353.63;4391176;32;32467;-82
2022/08/20 05:31:27;;;;;;;;;;;;;;;25.00;67.70;99352.59;4376136;32;33920;-82
2022/08/20 05:34:01;;;;;;;;;;;;;;;25.10;67.06;99342.50;4380836;32;33895;-82
2022/08/20 05:36:28;;;;;;;;;;;;;;;25.09;67.00;99340.81;4390732;32;33512;-82
2022/08/20 05:38:56;;;;;;;;;;;;;;;25.20;67.29;99331.50;4365767;32;34017;-82
2022/08/20 05:41:27;;;;;;;;;;;;;;;25.16;67.53;99336.44;4378005;32;33687;-83
2022/08/20 05:43:59;;;;;;;;;;;;;;;25.12;68.33;99328.84;4390991;32;33628;-82
2022/08/20 05:46:28;;;;;;;;;;;;;;;25.11;66.39;99329.81;4377396;32;32126;-83
2022/08/20 05:48:56;;;;;;;;;;;;;;;25.41;65.61;99333.66;4378234;32;33982;-82
2022/08/20 05:51:35;;;;;;;;;;;;;;;25.37;65.62;99333.16;4377150;32;32866;-83
2022/08/20 05:54:06;;;;;;;;;;;;;;;25.34;66.23;99335.34;4376824;32;34383;-82
2022/08/20 05:56:36;;;;;;;;;;;;;;;25.46;65.65;99342.09;4391952;32;33361;-83
2022/08/20 05:59:11;;;;;;;;;;;;;;;25.34;66.48;99355.09;4378740;32;33992;-82
2022/08/20 06:01:43;;;;;;;;;;;;;;;25.54;64.98;99334.78;4375839;32;34218;-83
2022/08/20 06:04:30;;;;;;;;;;;;;;;25.26;66.26;99342.47;4389722;32;33766;-83
2022/08/20 06:07:02;;;;;;;;;;;;;;;25.17;66.41;99337.25;4389605;32;33107;-82
2022/08/20 06:09:32;;;;;;;;;;;;;;;25.37;64.58;99326.91;4389984;32;33893;-82
2022/08/20 06:12:02;;;;;;;;;;;;;;;24.56;68.70;99328.66;4374711;32;33559;-83
2022/08/20 06:14:31;;;;;;;;;;;;;;;24.52;69.99;99351.59;4375634;32;32721;-82
2022/08/20 06:17:05;;;;;;;;;;;;;;;25.17;67.37;99329.16;4374558;32;32010;-83
2022/08/20 06:19:35;;;;;;;;;;;;;;;24.66;69.17;99340.13;4388474;32;33229;-83
2022/08/20 06:22:04;;;;;;;;;;;;;;;24.39;70.24;99348.53;4365360;32;33393;-83
2022/08/20 06:24:52;;;;;;;;;;;;;;;24.93;68.53;99351.63;4388459;32;33355;-83
2022/08/20 06:27:25;;;;;;;;;;;;;;;25.11;67.64;99349.56;4376421;32;31950;-83
2022/08/20 06:29:53;;;;;;;;;;;;;;;25.23;67.21;99358.19;4388734;32;33422;-83
2022/08/20 06:32:23;;;;;;;;;;;;;;;25.37;66.76;99353.94;4373654;32;31735;-84
2022/08/20 06:35:00;;;;;;;;;;;;;;;25.09;67.98;99373.22;4376184;32;34452;-84
2022/08/20 06:37:35;;;;;;;;;;;;;;;25.19;65.68;99386.56;4387283;32;33408;-83
2022/08/20 06:40:06;;;;;;;;;;;;;;;25.25;65.79;99391.25;4363005;32;32498;-83
2022/08/20 06:42:44;;;;;;;;;;;;;;;25.37;63.49;99414.22;4377668;32;34870;-82
2022/08/20 06:45:17;;;;;;;;;;;;;;;25.33;64.45;99403.94;4387608;32;33827;-84
2022/08/20 06:47:46;;;;;;;;;;;;;;;24.74;67.06;99396.00;4388148;32;35894;-84
2022/08/20 06:50:22;;;;;;;;;;;;;;;24.92;67.38;99393.13;4375666;32;33017;-84
2022/08/20 06:55:31;;;;;;;;;;;;;;;25.26;66.95;99420.00;4388395;32;34633;-85
2022/08/20 06:58:05;;;;;;;;;;;;;;;25.29;66.47;99428.59;4388376;32;32847;-85
2022/08/20 07:00:53;;;;;;;;;;;;;;;25.22;65.85;99435.69;4376844;32;34225;-85
2022/08/20 07:03:27;;;;;;;;;;;;;;;25.40;64.70;99431.94;4373207;32;34281;-85
2022/08/20 07:05:58;;;;;;;;;;;;;;;25.31;65.44;99435.69;4376926;32;33920;-85
2022/08/20 07:08:26;;;;;;;;;;;;;;;24.93;66.17;99451.53;4371202;32;33313;-85
2022/08/20 07:10:58;;;;;;;;;;;;;;;25.08;66.00;99441.78;4386703;32;31656;-85
2022/08/20 07:13:35;;;;;;;;;;;;;;;25.04;66.11;99451.19;4380684;32;35110;-85
2022/08/20 07:16:14;;;;;;;;;;;;;;;25.07;66.68;99441.91;4372606;32;34176;-84
2022/08/20 07:18:44;;;;;;;;;;;;;;;25.04;66.80;99443.09;4372581;32;33540;-84
2022/08/20 07:21:16;;;;;;;;;;;;;;;25.11;66.62;99435.19;4358145;32;34914;-85
2022/08/20 07:23:44;;;;;;;;;;;;;;;25.04;66.80;99440.41;4383683;32;32715;-85
2022/08/20 07:26:15;;;;;;;;;;;;;;;25.04;67.13;99440.41;4369539;32;33666;-85
2022/08/20 07:28:46;;;;;;;;;;;;;;;24.97;67.42;99450.16;4369200;32;32002;-85
2022/08/20 07:34:12;;;;;;;;;;;;;;;25.16;66.80;99470.62;4370981;32;34958;-86
2022/08/20 07:36:47;;;;;;;;;;;;;;;25.06;67.42;99486.12;4370923;32;34529;-87
2022/08/20 07:39:20;;;;;;;;;;;;;;;25.22;66.74;99489.75;4371860;32;32632;-87
2022/08/20 07:42:01;;;;;;;;;;;;;;;25.09;67.34;99504.75;4369811;32;32918;-85
2022/08/20 07:44:36;;;;;;;;;;;;;;;25.19;66.84;99517.09;4357484;32;33489;-85
2022/08/20 07:47:06;;;;;;;;;;;;;;;24.98;68.46;99522.94;4383396;32;33955;-84
2022/08/20 07:49:38;;;;;;;;;;;;;;;24.94;67.57;99535.09;4360116;32;33185;-85
2022/08/20 07:52:22;;;;;;;;;;;;;;;24.99;66.64;99523.78;4371820;32;34654;-84
2022/08/20 07:54:53;;;;;;;;;;;;;;;24.72;67.17;99533.00;4368157;32;33328;-84
2022/08/20 07:57:21;;;;;;;;;;;;;;;24.87;65.87;99550.25;4369227;32;32618;-85
2022/08/20 07:59:49;;;;;;;;;;;;;;;24.14;67.23;99575.06;4360630;32;29915;-85
2022/08/20 08:02:19;;;;;;;;;;;;;;;23.99;67.61;99579.34;4358963;32;33055;-84
2022/08/20 08:04:53;;;;;;;;;;;;;;;23.65;67.89;99593.59;4346085;32;33514;-84
2022/08/20 08:07:32;;;;;;;;;;;;;;;23.79;68.15;99588.63;4358287;32;33232;-85
2022/08/20 08:10:03;;;;;;;;;;;;;;;24.33;66.10;99575.84;4371173;32;30157;-85
2022/08/20 08:12:43;;;;;;;;;;;;;;;24.26;65.59;99554.91;4372107;32;36289;-86
2022/08/20 08:15:20;;;;;;;;;;;;;;;24.22;65.93;99561.63;4370285;32;34001;-86
2022/08/20 08:17:54;;;;;;;;;;;;;;;24.07;67.36;99574.00;4375049;32;34396;-85
2022/08/20 08:20:29;;;;;;;;;;;;;;;23.96;67.85;99575.09;4357343;32;33632;-85
2022/08/20 08:22:59;;;;;;;;;;;;;;;23.94;68.26;99565.50;4373688;32;34352;-85
2022/08/20 08:25:28;;;;;;;;;;;;;;;23.90;68.66;99553.31;4363671;32;34225;-85
2022/08/20 08:27:59;;;;;;;;;;;;;;;23.72;69.25;99562.28;4370952;32;33043;-84
2022/08/20 08:30:30;;;;;;;;;;;;;;;23.79;68.57;99556.28;4369109;32;32944;-84
2022/08/20 08:33:27;;;;;;;;;;;;;;;23.75;68.34;99561.97;4371154;32;35771;-84
2022/08/20 08:35:55;;;;;;;;;;;;;;;24.26;66.28;99554.91;4383059;32;33658;-84
2022/08/20 08:38:29;;;;;;;;;;;;;;;24.35;66.03;99558.44;4372331;32;34097;-85
2022/08/20 08:41:15;;;;;;;;;;;;;;;23.93;67.81;99570.03;4373461;32;31938;-84
2022/08/20 08:43:57;;;;;;;;;;;;;;;23.74;68.80;99540.59;4376383;32;32971;-85
2022/08/20 08:46:29;;;;;;;;;;;;;;;23.95;68.38;99514.09;4374376;32;34001;-84
2022/08/20 08:49:00;;;;;;;;;;;;;;;23.87;68.94;99495.16;4388132;32;33269;-84
2022/08/20 08:51:34;;;;;;;;;;;;;;;23.92;68.91;99486.59;4378554;32;32492;-84
2022/08/20 08:54:04;;;;;;;;;;;;;;;24.16;67.55;99489.41;4366114;32;33499;-84
2022/08/20 08:56:35;;;;;;;;;;;;;;;24.14;67.36;99493.28;4386830;32;33945;-83
2022/08/20 08:59:12;;;;;;;;;;;;;;;23.73;69.36;99510.06;4372521;32;32572;-83
2022/08/20 09:01:53;;;;;;;;;;;;;;;23.59;69.96;99505.22;4375949;32;34971;-83
2022/08/20 09:04:44;;;;;;;;;;;;;;;23.53;70.79;99492.38;4389734;32;34751;-83
2022/08/20 09:07:19;;;;;;;;;;;;;;;23.74;69.73;99482.13;4375534;32;34819;-84
2022/08/20 09:09:48;;;;;;;;;;;;;;;23.75;69.24;99481.09;4385130;32;32717;-82
2022/08/20 09:12:26;;;;;;;;;;;;;;;23.71;69.61;99482.44;4392720;32;34277;-83
2022/08/20 09:15:07;;;;;;;;;;;;;;;23.58;69.19;99489.19;4375846;32;32071;-83
2022/08/20 09:17:47;;;;;;;;;;;;;;;23.75;68.76;99513.47;4375930;32;32595;-84
2022/08/20 09:20:33;;;;;;;;;;;;;;;23.95;68.15;99534.81;4377124;32;32875;-83
2022/08/20 09:23:12;;;;;;;;;;;;;;;23.69;68.73;99543.75;4365663;32;31662;-84
2022/08/20 09:25:46;;;;;;;;;;;;;;;23.38;69.47;99547.84;4376617;32;34901;-83
2022/08/20 09:28:20;;;;;;;;;;;;;;;23.67;68.70;99553.81;4375457;32;34507;-81
2022/08/20 09:31:04;;;;;;;;;;;;;;;23.44;69.17;99548.03;4375191;32;35784;-81
2022/08/20 09:33:36;;;;;;;;;;;;;;;23.49;68.91;99534.09;4374543;32;32517;-81
2022/08/20 09:36:10;;;;;;;;;;;;;;;23.47;68.60;99528.03;4363720;32;34828;-81
2022/08/20 09:38:59;;;;;;;;;;;;;;;23.27;69.11;99529.22;4370405;32;33693;-82
2022/08/20 09:41:30;;;;;;;;;;;;;;;23.19;69.04;99538.91;4373376;32;32599;-82
2022/08/20 09:44:02;;;;;;;;;;;;;;;23.24;68.66;99550.06;4373499;32;32128;-81
2022/08/20 09:46:38;;;;;;;;;;;;;;;23.20;69.33;99550.53;4374488;32;35535;-81
2022/08/20 09:49:10;;;;;;;;;;;;;;;23.21;69.37;99542.28;4384325;32;33849;-82
2022/08/20 09:51:39;;;;;;;;;;;;;;;23.06;70.03;99532.22;4371685;32;34573;-81
2022/08/20 09:54:08;;;;;;;;;;;;;;;22.91;70.43;99513.03;4375363;32;32762;-81
2022/08/20 09:56:36;;;;;;;;;;;;;;;22.79;71.35;99503.47;4373448;32;33880;-82
2022/08/20 09:59:07;;;;;;;;;;;;;;;22.74;72.12;99485.94;4376400;32;33274;-84
2022/08/20 10:01:41;;;;;;;;;;;;;;;22.71;72.40;99461.16;4377964;32;33309;-84
2022/08/20 10:04:11;;;;;;;;;;;;;;;22.67;73.14;99436.41;4377359;32;34202;-84
2022/08/20 10:06:42;;;;;;;;;;;;;;;22.47;74.48;99429.47;4389538;32;34857;-84
2022/08/20 10:09:16;;;;;;;;;;;;;;;22.44;75.59;99430.63;4377500;32;34903;-84
2022/08/20 10:14:28;;;;;;;;;;;;;;;23.13;71.32;99393.25;4386463;32;33582;-84
2022/08/20 10:16:56;;;;;;;;;;;;;;;23.08;71.01;99379.44;4371936;32;33921;-84
2022/08/20 10:19:32;;;;;;;;;;;;;;;23.03;72.43;99368.28;4373567;32;34003;-85
2022/08/20 10:22:04;;;;;;;;;;;;;;;23.30;72.89;99359.19;4376628;32;34453;-85
2022/08/20 10:24:39;;;;;;;;;;;;;;;23.20;76.97;99362.81;4389368;32;33491;-86
2022/08/20 10:27:13;;;;;;;;;;;;;;;23.44;74.28;99372.91;4372494;32;34381;-86
2022/08/20 10:29:48;;;;;;;;;;;;;;;23.27;73.40;99379.22;4387491;32;33988;-85
2022/08/20 10:32:16;;;;;;;;;;;;;;;23.80;71.37;99385.44;4365124;32;34568;-85
2022/08/20 10:34:49;;;;;;;;;;;;;;;23.95;70.79;99391.87;4365702;32;32295;-85
2022/08/20 10:37:22;;;;;;;;;;;;;;;23.91;70.57;99409.41;4383768;32;34310;-85
2022/08/20 10:39:51;;;;;;;;;;;;;;;23.94;68.65;99438.75;4365526;32;33035;-86
2022/08/20 10:42:23;;;;;;;;;;;;;;;24.27;69.42;99462.16;4365639;32;33158;-85
2022/08/20 10:47:28;;;;;;;;;;;;;;;24.28;66.61;99463.84;4377416;32;32609;-86
2022/08/20 10:50:03;;;;;;;;;;;;;;;24.90;66.47;99459.97;4368308;32;33947;-86
2022/08/20 10:52:32;;;;;;;;;;;;;;;24.86;66.28;99464.00;4370816;32;34392;-86
2022/08/20 10:55:03;;;;;;;;;;;;;;;24.88;66.81;99465.53;4361253;32;32033;-86
2022/08/20 10:57:37;;;;;;;;;;;;;;;25.14;67.04;99470.81;4366851;32;33550;-86
2022/08/20 11:00:16;;;;;;;;;;;;;;;25.02;69.02;99478.38;4367939;32;33666;-86
2022/08/20 11:02:48;;;;;;;;;;;;;;;25.17;66.47;99486.69;4367812;32;34500;-86
2022/08/20 11:05:23;;;;;;;;;;;;;;;25.43;65.86;99491.91;4362403;32;33265;-86
2022/08/20 11:07:54;;;;;;;;;;;;;;;25.42;66.33;99492.09;4377488;32;34898;-87
2022/08/20 11:10:33;;;;;;;;;;;;;;;25.50;65.42;99489.41;4377358;32;34998;-86
2022/08/20 11:13:03;;;;;;;;;;;;;;;25.81;64.23;99488.69;4375835;32;35403;-86
2022/08/20 11:15:32;;;;;;;;;;;;;;;25.66;62.85;99478.56;4389522;32;34368;-87
2022/08/20 11:17:59;;;;;;;;;;;;;;;25.56;62.89;99485.16;4364512;32;33396;-86
2022/08/20 11:20:30;;;;;;;;;;;;;;;25.70;62.86;99485.31;4376220;32;35095;-87
2022/08/20 11:22:59;;;;;;;;;;;;;;;25.58;62.41;99486.66;4363860;32;34591;-87
2022/08/20 11:25:36;;;;;;;;;;;;;;;26.15;61.46;99481.13;4365223;32;33027;-87
2022/08/20 11:28:14;;;;;;;;;;;;;;;26.27;61.90;99482.47;4365729;32;33981;-88
2022/08/20 11:30:45;;;;;;;;;;;;;;;26.42;61.96;99484.44;4374702;32;34023;-87
2022/08/20 11:33:13;;;;;;;;;;;;;;;26.58;62.79;99497.91;4377031;32;34529;-87
2022/08/20 11:38:22;;;;;;;;;;;;;;;26.58;60.00;99469.97;4377022;32;33050;-87
2022/08/20 11:40:50;;;;;;;;;;;;;;;26.52;59.23;99480.50;4364803;32;32990;-87
2022/08/20 11:43:24;;;;;;;;;;;;;;;26.47;58.93;99471.22;4376993;32;32899;-88
2022/08/20 11:46:02;;;;;;;;;;;;;;;26.44;59.75;99472.41;4388555;32;34313;-88
2022/08/20 11:48:35;;;;;;;;;;;;;;;26.37;61.73;99459.75;4365514;32;34068;-88
2022/08/20 11:51:15;;;;;;;;;;;;;;;26.40;58.67;99454.00;4376888;32;34424;-88
2022/08/20 11:53:44;;;;;;;;;;;;;;;26.11;59.37;99447.34;4376934;32;34317;-88
2022/08/20 11:56:19;;;;;;;;;;;;;;;26.20;60.96;99454.41;4365126;32;32853;-88
2022/08/20 11:58:55;;;;;;;;;;;;;;;26.41;59.74;99450.25;4376944;32;34947;-89
2022/08/20 12:01:30;;;;;;;;;;;;;;;26.29;61.16;99442.50;4376819;32;33070;-89
2022/08/20 12:04:03;;;;;;;;;;;;;;;26.07;60.42;99447.88;4377224;32;32926;-88
2022/08/20 12:06:36;;;;;;;;;;;;;;;26.20;60.13;99445.44;4376692;32;32485;-88
2022/08/20 12:09:12;;;;;;;;;;;;;;;26.36;59.37;99448.09;4364755;32;33038;-89
2022/08/20 12:11:45;;;;;;;;;;;;;;;26.22;57.74;99444.25;4365778;32;33204;-89
2022/08/20 12:14:26;;;;;;;;;;;;;;;26.15;60.79;99439.72;4378740;32;33267;-89
2022/08/20 12:17:08;;;;;;;;;;;;;;;25.97;62.96;99434.53;4379280;32;32702;-90
2022/08/20 12:19:39;;;;;;;;;;;;;;;26.33;60.05;99425.94;4378792;32;33248;-89
2022/08/20 12:22:09;;;;;;;;;;;;;;;26.45;57.07;99424.56;4378873;32;33364;-89
2022/08/20 12:25:01;;;;;;;;;;;;;;;26.37;58.63;99417.28;4356400;32;34529;-89
2022/08/20 12:27:38;;;;;;;;;;;;;;;26.30;58.76;99417.16;4354282;32;32079;-89
2022/08/20 12:30:12;;;;;;;;;;;;;;;26.34;58.28;99411.38;4366451;32;32687;-89
2022/08/20 12:32:53;;;;;;;;;;;;;;;26.37;59.45;99405.63;4366218;32;33556;-89
2022/08/20 12:35:30;;;;;;;;;;;;;;;26.38;58.82;99396.47;4354314;32;33637;-90
2022/08/20 12:38:05;;;;;;;;;;;;;;;26.36;60.25;99398.53;4366643;32;32927;-90
2022/08/20 12:43:22;;;;;;;;;;;;;;;26.62;57.81;99384.66;4378878;32;33469;-89
2022/08/20 12:45:56;;;;;;;;;;;;;;;26.46;57.53;99377.50;4354705;32;33151;-89
2022/08/20 12:48:30;;;;;;;;;;;;;;;26.50;57.60;99373.41;4354665;32;32576;-90
2022/08/20 12:51:01;;;;;;;;;;;;;;;26.48;59.25;99368.16;4366968;32;33725;-89
2022/08/20 12:53:35;;;;;;;;;;;;;;;26.51;57.00;99353.44;4367299;32;35316;-89
2022/08/20 12:56:09;;;;;;;;;;;;;;;26.42;59.84;99349.91;4366555;32;32901;-89
2022/08/20 12:58:45;;;;;;;;;;;;;;;26.48;59.15;99345.66;4354024;32;32824;-90
2022/08/20 13:04:51;;;;;;;;;;;;;;;26.71;59.99;99340.25;4380117;32;35085;-90
2022/08/20 13:07:19;;;;;;;;;;;;;;;26.46;62.67;99328.78;4366187;32;33788;-89
2022/08/20 13:09:46;;;;;;;;;;;;;;;26.59;62.32;99331.72;4366287;32;33571;-89
2022/08/20 13:12:13;;;;;;;;;;;;;;;26.77;61.91;99337.63;4353273;32;32822;-89
2022/08/20 13:14:41;;;;;;;;;;;;;;;26.91;59.43;99344.13;4341571;32;34113;-89
2022/08/20 13:17:09;;;;;;;;;;;;;;;27.04;58.32;99332.69;4353702;32;32863;-89
2022/08/20 13:19:38;;;;;;;;;;;;;;;26.99;58.49;99345.94;4353517;32;32684;-89
2022/08/20 13:22:06;;;;;;;;;;;;;;;26.99;60.00;99341.34;4358940;32;34566;-85
2022/08/20 13:24:33;;;;;;;;;;;;;;;26.92;61.18;99339.53;4384019;32;33524;-85
2022/08/20 13:27:08;;;;;;;;;;;;;;;27.13;59.53;99337.03;4373427;32;34107;-84
2022/08/20 13:29:36;;;;;;;;;;;;;;;27.08;59.50;99328.59;4385565;32;32295;-85
2022/08/20 13:32:04;;;;;;;;;;;;;;;27.15;60.42;99334.94;4357487;32;32734;-84
2022/08/20 13:34:31;;;;;;;;;;;;;;;27.31;59.39;99334.81;4384513;32;33638;-85
2022/08/20 13:36:59;;;;;;;;;;;;;;;27.28;59.77;99334.31;4369659;32;33617;-85